Time;durP1;ratioP1;P1;durP2;ratioP2;P2;SDS_P1;SDS_P2;PMS_P1;PMS_P2;Temp;Humidity;BMP_temperature;BMP_pressure;BME280_temperature;BME280_humidity;BME280_pressure;Samples;Min_cycle;Max_cycle;Signal;HPM_P1;HPM_P2
2022/01/24 00:03:33;;;;;;;97.68;82.53;;;18.70;36.20;;;;;;4743619;55;21006;-33
2022/01/24 00:08:37;;;;;;;101.35;85.72;;;18.70;36.20;;;;;;4737980;59;21451;-35
2022/01/24 00:14:29;;;;;;;95.55;78.75;;;18.70;36.20;;;;;;4738542;55;20963;-34
2022/01/24 00:30:09;;;;;;;97.53;80.47;;;18.60;36.10;;;;;;4762499;55;21555;-34
2022/01/24 00:35:11;;;;;;;100.38;82.90;;;18.70;36.80;;;;;;4744743;55;21102;-26
2022/01/24 00:40:12;;;;;;;99.18;81.72;;;18.70;36.10;;;;;;4797277;55;21017;-36
2022/01/24 00:45:31;;;;;;;96.93;82.93;;;18.60;36.00;;;;;;4771013;55;21014;-33
2022/01/24 00:55:52;;;;;;;98.80;82.30;;;18.70;36.00;;;;;;4765148;55;21609;-35
2022/01/24 01:00:54;;;;;;;98.40;81.95;;;18.60;35.90;;;;;;4767357;55;21126;-34
2022/01/24 01:06:14;;;;;;;99.18;82.15;;;18.60;35.90;;;;;;4738238;59;21109;-36
2022/01/24 01:21:55;;;;;;;97.15;82.03;;;18.70;35.90;;;;;;4737097;55;21109;-32
2022/01/24 01:27:03;;;;;;;98.93;81.25;;;18.60;35.90;;;;;;4748470;55;21101;-37
2022/01/24 01:32:16;;;;;;;98.68;83.40;;;18.60;35.80;;;;;;4761740;55;21555;-35
2022/01/24 01:38:26;;;;;;;99.95;82.35;;;18.60;35.80;;;;;;4744266;55;21678;-38
2022/01/24 01:55:12;;;;;;;97.25;79.60;;;18.60;35.80;;;;;;4738481;55;21579;-30
2022/01/24 02:00:14;;;;;;;101.70;82.55;;;18.60;35.70;;;;;;4747801;55;21507;-36
2022/01/24 02:05:15;;;;;;;100.00;81.43;;;18.60;35.70;;;;;;4772293;55;20995;-35
2022/01/24 02:10:18;;;;;;;100.25;81.87;;;18.60;35.70;;;;;;4738264;57;21522;-39
2022/01/24 02:15:31;;;;;;;94.13;78.80;;;18.60;35.60;;;;;;4819589;55;21630;-34
2022/01/24 02:21:05;;;;;;;100.20;80.22;;;18.60;35.70;;;;;;4761063;55;21485;-36
2022/01/24 02:26:11;;;;;;;100.68;82.37;;;18.60;35.60;;;;;;4762331;55;21607;-33
2022/01/24 02:31:37;;;;;;;96.72;80.25;;;18.60;35.60;;;;;;4739600;55;21505;-35
2022/01/24 02:36:38;;;;;;;101.75;83.00;;;18.60;35.60;;;;;;4738624;59;21571;-35
2022/01/24 02:52:17;;;;;;;98.72;80.12;;;18.60;35.60;;;;;;4759077;55;21097;-36
2022/01/24 02:57:20;;;;;;;97.30;78.78;;;18.60;35.50;;;;;;4809682;55;21492;-34
2022/01/24 03:02:21;;;;;;;98.37;80.47;;;18.60;36.10;;;;;;4792834;55;21576;-35
2022/01/24 03:07:22;;;;;;;100.87;82.12;;;18.60;35.50;;;;;;4742135;55;21020;-33
2022/01/24 03:18:54;;;;;;;99.00;80.75;;;18.60;35.50;;;;;;4750183;55;21596;-34
2022/01/24 03:23:55;;;;;;;101.72;83.20;;;18.50;35.40;;;;;;4738130;59;21001;-34
2022/01/24 03:28:56;;;;;;;99.53;81.65;;;18.60;35.50;;;;;;4738002;59;21508;-34
2022/01/24 03:33:57;;;;;;;97.72;80.28;;;18.60;35.50;;;;;;4737646;59;21077;-33
2022/01/24 03:38:58;;;;;;;95.85;78.93;;;18.50;35.40;;;;;;4769005;55;21508;-32
2022/01/24 03:44:01;;;;;;;100.78;82.35;;;18.60;35.40;;;;;;4752003;55;21078;-35
2022/01/24 03:49:20;;;;;;;95.55;77.62;;;18.50;35.40;;;;;;4759412;55;21468;-35
2022/01/24 03:54:21;;;;;;;99.07;80.75;;;18.50;35.40;;;;;;4761160;55;21543;-34
2022/01/24 03:59:22;;;;;;;100.22;82.97;;;18.50;35.30;;;;;;4759326;55;20997;-36
2022/01/24 04:04:22;;;;;;;97.15;78.47;;;18.50;35.30;;;;;;4771679;55;20990;-29
2022/01/24 04:09:23;;;;;;;99.97;80.87;;;18.60;35.40;;;;;;4772609;55;21571;-33
2022/01/24 04:16:12;;;;;;;103.25;84.18;;;18.50;35.30;;;;;;4752083;55;21086;-37
2022/01/24 04:21:26;;;;;;;96.68;76.45;;;18.60;35.40;;;;;;4739945;55;22614;-35
2022/01/24 04:26:28;;;;;;;99.78;81.43;;;18.50;35.30;;;;;;4769497;55;21552;-32
2022/01/24 04:31:29;;;;;;;97.28;79.18;;;18.50;35.30;;;;;;4759749;55;21094;-32
2022/01/24 04:36:30;;;;;;;100.22;82.53;;;18.50;35.40;;;;;;4751038;55;21113;-35
2022/01/24 04:41:36;;;;;;;100.87;81.22;;;18.50;35.30;;;;;;4756150;55;21077;-34
2022/01/24 04:53:00;;;;;;;99.85;81.05;;;18.50;35.40;;;;;;4855567;55;21567;-33
2022/01/24 04:58:01;;;;;;;100.70;81.93;;;18.50;35.40;;;;;;4768690;55;21539;-33
2022/01/24 05:03:02;;;;;;;96.78;79.05;;;18.50;35.50;;;;;;4761895;55;21106;-33
2022/01/24 05:08:05;;;;;;;95.65;77.95;;;18.50;35.50;;;;;;4752967;55;21488;-35
2022/01/24 05:23:45;;;;;;;94.53;76.20;;;18.50;36.30;;;;;;4736738;55;21038;-35
2022/01/24 05:28:46;;;;;;;98.57;79.53;;;18.50;35.80;;;;;;4740649;55;21488;-30
2022/01/24 05:33:47;;;;;;;94.70;77.12;;;18.50;35.70;;;;;;4738627;55;21046;-34
2022/01/24 05:38:48;;;;;;;90.93;72.37;;;18.50;35.80;;;;;;4738050;59;20998;-31
2022/01/24 05:43:49;;;;;;;89.87;72.85;;;18.50;35.90;;;;;;4737589;59;21021;-35
2022/01/24 05:48:51;;;;;;;91.78;74.25;;;18.50;36.00;;;;;;4783700;55;21046;-33
2022/01/24 05:53:52;;;;;;;90.43;73.85;;;18.50;36.00;;;;;;4738208;55;21507;-35
2022/01/24 05:58:53;;;;;;;88.53;73.05;;;18.50;36.10;;;;;;4737836;59;21045;-35
2022/01/24 06:03:54;;;;;;;87.60;72.55;;;18.50;36.20;;;;;;4754836;55;22297;-35
2022/01/24 06:08:55;;;;;;;86.82;71.82;;;18.50;36.30;;;;;;4737588;55;21074;-36
2022/01/24 06:13:57;;;;;;;85.00;71.07;;;18.50;36.30;;;;;;4755903;55;21101;-33
2022/01/24 06:18:58;;;;;;;84.87;70.10;;;18.50;36.30;;;;;;4757305;55;21459;-34
2022/01/24 06:23:59;;;;;;;84.43;69.78;;;18.50;36.30;;;;;;4768894;55;21009;-34
2022/01/24 06:29:00;;;;;;;82.70;67.30;;;18.50;36.30;;;;;;4780560;55;21046;-36
2022/01/24 06:34:01;;;;;;;83.22;68.57;;;18.50;36.30;;;;;;4737855;56;21014;-32
2022/01/24 06:39:05;;;;;;;83.62;67.43;;;18.50;36.30;;;;;;4747353;55;21006;-36
2022/01/24 06:44:06;;;;;;;81.15;66.30;;;18.50;36.30;;;;;;4738010;55;21535;-36
2022/01/24 06:49:09;;;;;;;83.32;65.32;;;18.50;36.30;;;;;;4751799;55;21018;-38
2022/01/24 06:54:09;;;;;;;81.47;66.10;;;18.50;36.30;;;;;;4752253;55;21472;-34
2022/01/24 06:59:10;;;;;;;80.47;67.25;;;18.50;36.30;;;;;;4738395;59;21061;-34
2022/01/24 07:04:11;;;;;;;80.07;65.12;;;18.40;36.20;;;;;;4738135;59;21480;-32
2022/01/24 07:09:13;;;;;;;77.60;63.50;;;18.50;36.30;;;;;;4752701;55;21073;-34
2022/01/24 07:14:14;;;;;;;79.70;64.45;;;18.50;36.20;;;;;;4802223;55;21619;-38
2022/01/24 07:19:15;;;;;;;80.82;64.82;;;18.50;36.20;;;;;;4760854;55;21511;-38
2022/01/24 07:24:16;;;;;;;81.53;64.78;;;18.40;36.20;;;;;;4753641;55;21025;-35
2022/01/24 07:29:17;;;;;;;79.03;64.47;;;18.50;36.20;;;;;;4756869;55;21163;-36
2022/01/24 07:34:18;;;;;;;81.47;66.10;;;18.50;36.20;;;;;;4762779;55;21014;-33
2022/01/24 07:39:19;;;;;;;81.60;65.03;;;18.40;36.10;;;;;;4793367;55;21006;-35
2022/01/24 07:44:21;;;;;;;81.28;66.97;;;18.50;36.20;;;;;;4785305;55;21010;-39
2022/01/24 07:49:22;;;;;;;81.90;67.05;;;18.50;36.10;;;;;;4758148;55;21504;-35
2022/01/24 07:54:23;;;;;;;83.05;66.97;;;18.40;36.00;;;;;;4738282;55;21562;-36
2022/01/24 07:59:24;;;;;;;84.37;67.20;;;18.50;36.10;;;;;;4755625;55;21093;-37
2022/01/24 08:04:25;;;;;;;83.97;68.70;;;18.40;36.00;;;;;;4737813;59;21041;-37
2022/01/24 08:09:26;;;;;;;82.55;68.03;;;18.40;36.00;;;;;;4761180;55;21122;-25
2022/01/24 08:14:27;;;;;;;89.28;70.37;;;18.50;36.10;;;;;;4765916;55;21326;-31
2022/01/24 08:19:28;;;;;;;86.35;69.03;;;18.50;36.30;;;;;;4754028;55;21484;-33
2022/01/24 08:24:29;;;;;;;88.20;68.90;;;18.60;36.80;;;;;;4785181;55;21100;-34
2022/01/24 08:29:30;;;;;;;85.72;68.37;;;18.70;37.30;;;;;;4738335;56;21495;-31
2022/01/24 08:34:31;;;;;;;86.07;68.10;;;18.80;37.70;;;;;;4745368;55;21018;-29
2022/01/24 08:39:32;;;;;;;86.65;67.45;;;18.80;38.00;;;;;;4753614;55;21582;-31
2022/01/24 08:51:07;;;;;;;87.62;69.03;;;19.00;38.60;;;;;;4752122;55;20998;-36
2022/01/24 08:56:11;;;;;;;82.22;67.25;;;19.30;38.70;;;;;;4771885;55;21002;-36
2022/01/24 09:01:12;;;;;;;82.57;67.00;;;19.50;38.60;;;;;;4759388;55;21639;-32
2022/01/24 09:06:16;;;;;;;85.32;69.00;;;19.70;38.60;;;;;;4749355;55;21101;-33
2022/01/24 09:11:17;;;;;;;92.88;71.45;;;19.90;38.50;;;;;;4748843;55;21428;-35
2022/01/24 09:16:18;;;;;;;85.05;67.18;;;20.00;38.60;;;;;;4774442;55;21014;-34
2022/01/24 09:21:19;;;;;;;90.87;71.05;;;20.10;38.70;;;;;;4738686;55;21451;-31
2022/01/24 09:26:20;;;;;;;88.12;71.32;;;20.30;38.90;;;;;;4738007;59;21130;-32
2022/01/24 09:31:22;;;;;;;88.45;69.97;;;20.40;38.90;;;;;;4736767;56;21105;-33
2022/01/24 09:36:23;;;;;;;92.57;73.28;;;20.50;39.00;;;;;;4768298;55;21737;-37
2022/01/24 09:41:25;;;;;;;97.32;72.78;;;20.60;39.10;;;;;;4753597;55;21079;-39
2022/01/24 09:46:25;;;;;;;89.80;70.93;;;20.60;39.10;;;;;;4792884;55;21057;-37
2022/01/24 09:51:26;;;;;;;92.47;74.68;;;20.70;39.20;;;;;;4741513;55;21804;-36
2022/01/24 09:56:27;;;;;;;90.72;72.80;;;20.80;39.30;;;;;;4738977;59;21065;-38
2022/01/24 10:01:30;;;;;;;92.72;72.28;;;20.80;39.30;;;;;;4766227;55;21861;-38
2022/01/24 10:06:59;;;;;;;92.15;75.40;;;20.90;39.40;;;;;;4755270;55;21462;-39
2022/01/24 10:12:15;;;;;;;95.07;74.93;;;21.00;39.40;;;;;;4737583;59;21471;-31
2022/01/24 10:17:16;;;;;;;95.55;77.35;;;21.00;39.60;;;;;;4737966;55;21550;-34
2022/01/24 10:22:21;;;;;;;94.40;77.12;;;21.00;39.40;;;;;;4753881;55;21077;-38
2022/01/24 10:27:28;;;;;;;96.97;78.43;;;21.10;39.50;;;;;;4748355;55;20998;-31
2022/01/24 10:33:12;;;;;;;98.07;80.07;;;21.00;39.30;;;;;;4738073;59;21535;-36
2022/01/24 10:39:19;;;;;;;98.22;79.82;;;21.10;39.10;;;;;;4738186;55;21007;-36
2022/01/24 10:44:34;;;;;;;96.68;79.68;;;21.10;38.70;;;;;;4739962;55;20990;-34
2022/01/24 10:49:35;;;;;;;103.45;83.75;;;21.10;38.40;;;;;;4739649;55;21046;-35
2022/01/24 10:54:36;;;;;;;107.10;86.28;;;21.10;38.10;;;;;;4737181;59;21018;-35
2022/01/24 10:59:37;;;;;;;105.40;85.87;;;21.20;38.20;;;;;;4739422;55;21575;-46
2022/01/24 11:04:40;;;;;;;106.30;88.50;;;21.20;38.20;;;;;;4745334;55;21075;-34
2022/01/24 11:09:41;;;;;;;105.70;85.65;;;21.20;38.10;;;;;;4742464;55;21041;-39
2022/01/24 11:14:45;;;;;;;106.28;89.90;;;21.30;38.00;;;;;;4750150;55;20997;-36
2022/01/24 11:19:54;;;;;;;109.53;89.60;;;21.40;38.20;;;;;;4798015;55;21049;-33
2022/01/24 11:25:04;;;;;;;112.35;91.10;;;21.40;38.20;;;;;;4737360;59;20998;-34
2022/01/24 11:30:15;;;;;;;114.68;92.32;;;21.50;38.30;;;;;;4757426;55;21110;-33
2022/01/24 11:35:36;;;;;;;113.05;92.47;;;21.50;38.40;;;;;;4775747;55;20977;-36
2022/01/24 11:40:45;;;;;;;119.60;94.80;;;21.60;38.60;;;;;;4737620;55;21452;-35
2022/01/24 11:45:58;;;;;;;118.90;96.90;;;21.60;38.40;;;;;;4891580;55;21478;-36
2022/01/24 11:51:11;;;;;;;129.10;104.38;;;21.60;38.40;;;;;;4751399;55;21476;-33
2022/01/24 11:56:36;;;;;;;129.20;105.78;;;21.60;38.20;;;;;;4776724;55;21460;-35
2022/01/24 12:01:40;;;;;;;130.95;109.37;;;21.60;38.00;;;;;;4756061;55;21607;-38
2022/01/24 12:07:16;;;;;;;148.48;116.78;;;21.70;37.90;;;;;;4765422;55;22304;-36
2022/01/24 12:12:44;;;;;;;140.25;114.68;;;21.60;37.40;;;;;;4745540;55;21026;-38
2022/01/24 12:17:51;;;;;;;134.63;113.90;;;21.60;37.40;;;;;;4751055;55;21468;-34
2022/01/24 12:22:52;;;;;;;141.10;114.97;;;21.60;37.20;;;;;;4800264;55;21503;-36
2022/01/24 12:28:16;;;;;;;135.85;111.28;;;21.60;37.10;;;;;;4760661;55;21042;-36
2022/01/24 12:33:33;;;;;;;142.62;118.78;;;21.60;37.00;;;;;;4750899;55;21050;-38
2022/01/24 12:38:51;;;;;;;144.83;119.37;;;21.70;37.00;;;;;;4746142;55;21472;-35
2022/01/24 12:49:15;;;;;;;149.05;122.70;;;21.80;37.30;;;;;;4738851;55;21118;-46
2022/01/24 12:54:16;;;;;;;152.52;123.07;;;21.80;37.50;;;;;;4759313;55;21070;-49
2022/01/24 12:59:17;;;;;;;150.45;122.80;;;21.80;37.80;;;;;;4745581;55;20998;-38
2022/01/24 13:04:18;;;;;;;149.60;123.38;;;21.90;38.00;;;;;;4756850;55;21077;-35
2022/01/24 13:09:25;;;;;;;153.65;125.55;;;21.90;38.00;;;;;;4773223;55;21448;-42
2022/01/24 13:14:42;;;;;;;153.62;124.78;;;21.90;38.20;;;;;;4741314;55;21495;-33
2022/01/24 13:25:17;;;;;;;150.98;121.62;;;22.00;38.60;;;;;;4763135;55;21022;-37
2022/01/24 13:30:40;;;;;;;155.60;123.62;;;22.00;38.70;;;;;;4763699;55;21125;-36
2022/01/24 13:35:47;;;;;;;153.45;124.45;;;22.10;39.00;;;;;;4767397;55;22498;-45
2022/01/24 13:41:23;;;;;;;150.63;121.20;;;22.10;39.10;;;;;;4738024;59;21476;-35
2022/01/24 13:46:33;;;;;;;148.77;124.07;;;22.10;39.20;;;;;;4738629;59;21797;-34
2022/01/24 13:51:44;;;;;;;152.27;127.53;;;22.10;39.20;;;;;;4737320;59;21066;-39
2022/01/24 13:56:55;;;;;;;155.55;126.10;;;22.20;39.30;;;;;;4748762;55;21607;-45
2022/01/24 14:02:19;;;;;;;152.43;127.93;;;22.20;39.40;;;;;;4758379;55;21491;-41
2022/01/24 14:07:34;;;;;;;153.27;125.93;;;22.20;39.50;;;;;;4754782;55;21480;-42
2022/01/24 14:12:53;;;;;;;154.68;128.87;;;22.30;39.60;;;;;;4739756;55;22162;-39
2022/01/24 14:18:26;;;;;;;163.32;129.80;;;22.30;39.80;;;;;;4748499;55;21567;-36
2022/01/24 14:23:35;;;;;;;159.87;129.30;;;22.30;39.70;;;;;;4736733;55;21156;-36
2022/01/24 14:28:36;;;;;;;154.48;127.35;;;22.40;39.80;;;;;;4737327;59;21535;-37
2022/01/24 14:33:37;;;;;;;157.57;129.43;;;22.40;39.80;;;;;;4738788;55;20966;-37
2022/01/24 14:38:47;;;;;;;153.70;124.22;;;22.40;39.80;;;;;;4738111;59;22095;-36
2022/01/24 14:49:27;;;;;;;159.20;128.73;;;22.40;39.80;;;;;;4760566;55;21588;-39
2022/01/24 14:54:34;;;;;;;152.75;124.62;;;22.50;40.30;;;;;;4757450;55;20982;-37
2022/01/24 14:59:38;;;;;;;153.47;122.43;;;22.40;39.80;;;;;;4754790;55;21948;-34
2022/01/24 15:04:38;;;;;;;153.32;124.78;;;22.40;39.80;;;;;;4770945;55;21566;-33
2022/01/24 15:09:40;;;;;;;153.38;122.85;;;22.40;39.70;;;;;;4750130;55;21122;-38
2022/01/24 15:14:45;;;;;;;154.52;124.07;;;22.40;39.60;;;;;;4749600;55;21464;-39
2022/01/24 15:25:30;;;;;;;154.45;124.07;;;22.30;38.90;;;;;;4737531;55;21527;-44
2022/01/24 15:30:33;;;;;;;156.30;128.80;;;22.30;38.80;;;;;;4748915;55;21235;-33
2022/01/24 15:35:35;;;;;;;180.50;141.65;;;22.20;37.90;;;;;;4751937;55;21529;-38
2022/01/24 15:40:36;;;;;;;175.18;141.82;;;22.20;35.40;;;;;;4772139;55;21176;-35
2022/01/24 15:50:56;;;;;;;169.37;140.48;;;22.20;35.10;;;;;;4737159;55;21101;-39
2022/01/24 15:56:16;;;;;;;173.62;138.62;;;22.30;35.10;;;;;;4741848;55;21107;-40
2022/01/24 16:01:17;;;;;;;177.80;141.95;;;22.20;34.90;;;;;;4738723;55;21480;-34
2022/01/24 16:06:18;;;;;;;180.98;142.27;;;22.10;34.70;;;;;;4761338;55;21057;-34
2022/01/24 16:11:20;;;;;;;168.18;136.90;;;22.10;34.60;;;;;;4760274;55;21515;-40
2022/01/24 16:16:21;;;;;;;174.30;141.62;;;22.20;34.60;;;;;;4738194;55;21117;-34
2022/01/24 16:21:26;;;;;;;177.87;140.32;;;22.10;34.50;;;;;;4764300;55;21125;-38
2022/01/24 16:26:27;;;;;;;161.85;133.30;;;22.20;34.60;;;;;;4743689;55;21483;-31
2022/01/24 16:31:28;;;;;;;165.50;136.15;;;22.20;34.60;;;;;;4760905;55;21090;-35
2022/01/24 16:36:29;;;;;;;167.93;135.27;;;22.10;34.50;;;;;;4753209;55;21488;-36
2022/01/24 16:41:39;;;;;;;158.00;134.65;;;22.10;34.60;;;;;;4746019;55;21076;-40
2022/01/24 16:52:00;;;;;;;159.40;133.43;;;22.10;34.50;;;;;;4739187;55;21528;-39
2022/01/24 16:57:02;;;;;;;159.37;132.32;;;22.10;34.50;;;;;;4749362;55;21215;-38
2022/01/24 17:02:06;;;;;;;161.70;131.32;;;22.10;34.50;;;;;;4742162;55;21539;-37
2022/01/24 17:07:07;;;;;;;151.20;125.90;;;22.10;34.50;;;;;;4782023;55;21456;-32
2022/01/24 17:12:09;;;;;;;152.93;128.40;;;22.10;34.40;;;;;;4744057;55;21057;-35
2022/01/24 17:17:11;;;;;;;159.55;130.82;;;22.10;34.40;;;;;;4740838;55;20995;-37
2022/01/24 17:22:12;;;;;;;149.07;124.18;;;22.10;34.40;;;;;;4739741;55;21324;-39
2022/01/24 17:27:14;;;;;;;153.30;124.53;;;22.10;34.40;;;;;;4765518;55;21145;-39
2022/01/24 17:32:15;;;;;;;153.07;126.80;;;22.10;34.30;;;;;;4754235;55;21595;-36
2022/01/24 17:37:16;;;;;;;150.98;126.05;;;22.20;34.30;;;;;;4747969;55;21014;-36
2022/01/24 17:42:17;;;;;;;150.27;125.53;;;22.10;34.20;;;;;;4756659;55;21041;-35
2022/01/24 17:47:20;;;;;;;156.05;129.93;;;22.10;34.20;;;;;;4739029;59;21041;-39
2022/01/24 17:52:21;;;;;;;155.15;128.50;;;22.10;34.20;;;;;;4797886;55;21579;-35
2022/01/24 17:57:22;;;;;;;156.70;126.93;;;22.20;34.20;;;;;;4743703;55;21100;-37
2022/01/24 18:02:23;;;;;;;152.95;127.40;;;22.20;34.20;;;;;;4768444;55;21014;-37
2022/01/24 18:07:24;;;;;;;147.95;124.07;;;22.20;34.10;;;;;;4737981;56;20990;-37
2022/01/24 18:12:25;;;;;;;151.75;125.53;;;22.10;34.10;;;;;;4737563;59;21858;-37
2022/01/24 18:17:26;;;;;;;151.07;125.03;;;22.10;34.00;;;;;;4776167;55;21029;-38
2022/01/24 18:22:27;;;;;;;148.82;123.53;;;22.20;34.10;;;;;;4752756;55;21572;-37
2022/01/24 18:27:29;;;;;;;154.25;128.35;;;22.20;34.00;;;;;;4753345;55;21065;-37
2022/01/24 18:32:30;;;;;;;150.85;124.35;;;22.20;34.00;;;;;;4761113;55;21487;-36
2022/01/24 18:37:31;;;;;;;151.77;125.50;;;22.20;33.90;;;;;;4771754;55;21009;-34
2022/01/24 18:42:34;;;;;;;151.80;126.20;;;22.20;34.60;;;;;;4750968;55;21042;-38
2022/01/24 18:47:36;;;;;;;147.35;121.07;;;22.20;34.40;;;;;;4743273;55;21622;-37
2022/01/24 18:52:37;;;;;;;147.45;121.53;;;22.20;33.70;;;;;;4739668;55;21009;-38
2022/01/24 18:57:38;;;;;;;145.73;121.80;;;22.20;33.70;;;;;;4743399;55;21090;-38
2022/01/24 19:02:39;;;;;;;147.77;123.87;;;22.20;33.70;;;;;;4759533;55;21066;-41
2022/01/24 19:07:40;;;;;;;152.20;124.72;;;22.20;33.70;;;;;;4777094;55;21006;-37
2022/01/24 19:12:43;;;;;;;149.00;124.53;;;22.20;33.60;;;;;;4758136;55;21030;-39
2022/01/24 19:17:54;;;;;;;154.30;123.20;;;22.20;33.60;;;;;;4761442;55;21507;-33
2022/01/24 19:28:15;;;;;;;150.45;120.72;;;22.30;33.60;;;;;;4805137;55;21157;-38
2022/01/24 19:33:19;;;;;;;146.20;119.72;;;22.30;33.50;;;;;;4737651;56;20993;-38
2022/01/24 19:38:20;;;;;;;153.90;124.72;;;22.30;33.50;;;;;;4750852;55;21033;-38
2022/01/24 19:43:22;;;;;;;149.00;123.32;;;22.30;33.40;;;;;;4737075;59;21018;-38
2022/01/24 19:48:27;;;;;;;155.75;125.20;;;22.30;33.40;;;;;;4748064;55;20998;-36
2022/01/24 19:53:28;;;;;;;151.90;122.45;;;22.30;33.40;;;;;;4763027;55;21476;-37
2022/01/24 19:58:33;;;;;;;157.43;126.50;;;22.30;33.30;;;;;;4746079;55;21053;-32
2022/01/24 20:03:36;;;;;;;154.23;123.85;;;22.30;33.30;;;;;;4762841;55;21572;-38
2022/01/24 20:08:38;;;;;;;157.27;126.90;;;22.30;33.20;;;;;;4743375;55;21025;-33
2022/01/24 20:13:39;;;;;;;158.12;129.20;;;22.30;33.20;;;;;;4768975;55;21086;-39
2022/01/24 20:18:40;;;;;;;158.25;125.53;;;22.30;33.20;;;;;;4757970;55;21037;-34
2022/01/24 20:23:41;;;;;;;154.43;124.05;;;22.30;33.10;;;;;;4771084;55;21137;-30
2022/01/24 20:28:42;;;;;;;157.30;128.45;;;22.30;33.10;;;;;;4759175;55;21557;-38
2022/01/24 20:33:43;;;;;;;155.82;126.53;;;22.30;33.00;;;;;;4743589;55;21026;-36
2022/01/24 20:38:44;;;;;;;155.27;124.97;;;22.30;33.00;;;;;;4755074;55;21037;-33
2022/01/24 20:43:46;;;;;;;162.95;130.70;;;22.30;33.00;;;;;;4737672;59;21106;-35
2022/01/24 20:48:47;;;;;;;154.05;126.35;;;22.40;33.00;;;;;;4737821;55;21475;-34
2022/01/24 20:53:48;;;;;;;163.73;130.10;;;22.40;32.90;;;;;;4752182;55;20994;-37
2022/01/24 20:58:49;;;;;;;163.65;130.30;;;22.40;32.90;;;;;;4775019;55;21018;-35
2022/01/24 21:03:50;;;;;;;161.12;129.10;;;22.40;32.80;;;;;;4741491;55;21043;-30
2022/01/24 21:08:51;;;;;;;159.02;129.32;;;22.40;32.80;;;;;;4760993;55;21566;-32
2022/01/24 21:13:52;;;;;;;155.95;128.27;;;22.40;32.80;;;;;;4743566;55;21017;-37
2022/01/24 21:18:54;;;;;;;157.57;128.18;;;22.40;32.70;;;;;;4754953;55;21030;-37
2022/01/24 21:23:57;;;;;;;154.05;125.22;;;22.40;32.70;;;;;;4759135;55;21006;-39
2022/01/24 21:28:58;;;;;;;162.32;129.55;;;22.40;32.60;;;;;;4746048;55;21614;-38
2022/01/24 21:34:25;;;;;;;159.45;124.75;;;22.40;32.60;;;;;;4742025;55;20982;-38
2022/01/24 21:39:26;;;;;;;158.50;128.03;;;22.40;32.60;;;;;;4766195;55;22105;-45
2022/01/24 21:44:27;;;;;;;162.20;126.30;;;22.40;32.50;;;;;;4754977;55;21297;-33
2022/01/24 21:49:28;;;;;;;158.57;126.43;;;22.40;32.40;;;;;;4743326;55;21137;-39
2022/01/24 21:54:29;;;;;;;157.75;125.97;;;22.40;32.40;;;;;;4762139;55;21126;-33
2022/01/24 21:59:31;;;;;;;157.15;124.55;;;22.40;32.40;;;;;;4764987;55;21005;-34
2022/01/24 22:04:32;;;;;;;158.32;125.38;;;22.40;32.30;;;;;;4742018;55;21562;-38
2022/01/24 22:09:32;;;;;;;153.20;121.62;;;22.40;32.30;;;;;;4752399;55;21089;-39
2022/01/24 22:14:34;;;;;;;160.27;126.85;;;22.40;32.10;;;;;;4745354;55;21625;-33
2022/01/24 22:19:34;;;;;;;164.80;129.23;;;22.50;32.10;;;;;;4761462;55;22259;-38
2022/01/24 22:24:35;;;;;;;165.98;129.80;;;22.40;32.10;;;;;;4755388;55;21121;-35
2022/01/24 22:29:38;;;;;;;162.68;129.02;;;22.40;32.00;;;;;;4737751;59;22069;-35
2022/01/24 22:34:38;;;;;;;159.77;128.07;;;22.40;32.00;;;;;;4754625;55;21584;-38
2022/01/24 22:39:39;;;;;;;159.40;125.55;;;22.40;32.00;;;;;;4752008;55;21034;-39
2022/01/24 22:44:40;;;;;;;159.15;124.47;;;22.40;32.00;;;;;;4754567;55;21681;-37
2022/01/24 22:49:41;;;;;;;159.23;123.95;;;22.40;32.00;;;;;;4756199;55;21089;-34
2022/01/24 22:54:43;;;;;;;160.35;123.00;;;22.40;32.00;;;;;;4737717;59;21026;-38
2022/01/24 22:59:46;;;;;;;164.25;128.80;;;22.40;31.90;;;;;;4743278;55;21965;-35
2022/01/24 23:04:47;;;;;;;166.07;127.72;;;22.30;31.90;;;;;;4737898;55;21077;-37
2022/01/24 23:09:49;;;;;;;164.40;128.50;;;22.30;31.90;;;;;;4773813;55;21568;-38
2022/01/24 23:20:10;;;;;;;164.50;128.75;;;22.30;31.80;;;;;;4737874;55;21096;-37
2022/01/24 23:25:15;;;;;;;161.52;124.95;;;22.30;31.70;;;;;;4745630;55;21021;-36
2022/01/24 23:30:21;;;;;;;162.73;125.15;;;22.40;31.80;;;;;;4751614;55;21047;-35
2022/01/24 23:41:02;;;;;;;166.32;126.65;;;22.40;31.60;;;;;;4737325;59;21049;-36
2022/01/24 23:46:03;;;;;;;160.57;124.75;;;22.40;31.60;;;;;;4776890;55;21077;-38
2022/01/24 23:51:04;;;;;;;159.07;123.50;;;22.40;31.50;;;;;;4744429;55;21122;-46
2022/01/24 23:56:08;;;;;;;163.75;126.47;;;22.40;31.40;;;;;;4745078;55;21524;-38
